Washington, District of Columbia
Traffic Map
Current Weather Conditions
Washington, District of Columbia
Overcast Light Rain

Feels Like: 7°
Wind Chill: Ceiling: 700
Heat Index: Visibility: 10mi
Dew Point: Wind: 6mph
Humidity: 96% Direction: 130° (SE)
Pressure: 30.03in Gusts: 0mph
Raw Report DataKDCA 011952Z 13005KT 10SM -RA OVC007 09/08 A3003 RMK AO2 SLP168 P0003 T00890083
Traffic Incident Summary
Active as of:
InformationThere was an issue retrieving the traffic information for this location. Please try a different location or try again shortly.
Track Severe Weather on mobile